Terminal Aerodrome Forecast
Issued by NWS Melbourne, FL

Home | Current Version | Previous Version | Text Only | Print | Product List | Glossary On
Versions: 1 2 3 4 5 6 7 8 9 10 11 12
823
FTUS42 KMLB 241136
TAFMLB
TAF
KMLB 241136Z 2412/2512 22004KT P6SM SCT030 BKN040
     FM241800 28016G24KT P6SM SCT040
     FM250000 26011KT P6SM SCT250=

USA.gov is the U.S. government's official web portal to all federal, state and local government web resources and services.